sensor_id;sensor_type;location;lat;lon;timestamp;P1;durP1;ratioP1;P2;durP2;ratioP2
12050;SDS011;6086;43.546;26.474;2022-08-16T00:00:24;9.80;;;6.70;;
12050;SDS011;6086;43.546;26.474;2022-08-16T00:02:53;9.33;;;6.53;;
12050;SDS011;6086;43.546;26.474;2022-08-16T00:05:22;11.23;;;7.10;;
12050;SDS011;6086;43.546;26.474;2022-08-16T00:07:50;8.40;;;6.67;;
12050;SDS011;6086;43.546;26.474;2022-08-16T00:10:18;8.93;;;6.90;;
12050;SDS011;6086;43.546;26.474;2022-08-16T00:12:47;9.13;;;6.57;;
12050;SDS011;6086;43.546;26.474;2022-08-16T00:15:18;7.43;;;6.47;;
12050;SDS011;6086;43.546;26.474;2022-08-16T00:17:48;10.03;;;6.93;;
12050;SDS011;6086;43.546;26.474;2022-08-16T00:20:15;11.77;;;7.83;;
12050;SDS011;6086;43.546;26.474;2022-08-16T00:22:43;8.93;;;7.37;;
12050;SDS011;6086;43.546;26.474;2022-08-16T00:25:12;9.17;;;7.07;;
12050;SDS011;6086;43.546;26.474;2022-08-16T00:27:41;9.67;;;7.03;;
12050;SDS011;6086;43.546;26.474;2022-08-16T00:30:09;13.80;;;7.50;;
12050;SDS011;6086;43.546;26.474;2022-08-16T00:32:41;9.20;;;7.20;;
12050;SDS011;6086;43.546;26.474;2022-08-16T00:35:10;9.87;;;7.83;;
12050;SDS011;6086;43.546;26.474;2022-08-16T00:37:38;9.37;;;7.20;;
12050;SDS011;6086;43.546;26.474;2022-08-16T00:40:06;13.60;;;7.10;;
12050;SDS011;6086;43.546;26.474;2022-08-16T00:42:33;8.20;;;6.63;;
12050;SDS011;6086;43.546;26.474;2022-08-16T00:45:03;9.00;;;7.10;;
12050;SDS011;6086;43.546;26.474;2022-08-16T00:47:36;9.10;;;7.17;;
12050;SDS011;6086;43.546;26.474;2022-08-16T00:50:09;9.60;;;6.87;;
12050;SDS011;6086;43.546;26.474;2022-08-16T00:52:36;9.37;;;7.17;;
12050;SDS011;6086;43.546;26.474;2022-08-16T00:55:03;9.70;;;7.27;;
12050;SDS011;6086;43.546;26.474;2022-08-16T00:57:31;12.20;;;7.70;;
12050;SDS011;6086;43.546;26.474;2022-08-16T01:00:00;12.27;;;7.67;;
12050;SDS011;6086;43.546;26.474;2022-08-16T01:02:28;12.73;;;8.40;;
12050;SDS011;6086;43.546;26.474;2022-08-16T01:04:56;14.03;;;8.20;;
12050;SDS011;6086;43.546;26.474;2022-08-16T01:07:23;11.07;;;8.00;;
12050;SDS011;6086;43.546;26.474;2022-08-16T01:09:50;12.63;;;9.10;;
12050;SDS011;6086;43.546;26.474;2022-08-16T01:12:17;10.57;;;8.47;;
12050;SDS011;6086;43.546;26.474;2022-08-16T01:14:46;9.83;;;7.33;;
12050;SDS011;6086;43.546;26.474;2022-08-16T01:17:19;8.63;;;7.23;;
12050;SDS011;6086;43.546;26.474;2022-08-16T01:19:49;11.70;;;7.00;;
12050;SDS011;6086;43.546;26.474;2022-08-16T01:22:24;12.40;;;7.30;;
12050;SDS011;6086;43.546;26.474;2022-08-16T01:25:05;8.03;;;7.07;;
12050;SDS011;6086;43.546;26.474;2022-08-16T01:27:36;10.73;;;6.97;;
12050;SDS011;6086;43.546;26.474;2022-08-16T01:30:09;11.47;;;7.60;;
12050;SDS011;6086;43.546;26.474;2022-08-16T01:32:39;12.47;;;7.33;;
12050;SDS011;6086;43.546;26.474;2022-08-16T01:35:08;13.83;;;8.03;;
12050;SDS011;6086;43.546;26.474;2022-08-16T01:37:41;12.13;;;7.40;;
12050;SDS011;6086;43.546;26.474;2022-08-16T01:40:12;9.87;;;7.20;;
12050;SDS011;6086;43.546;26.474;2022-08-16T01:42:41;11.27;;;8.10;;
12050;SDS011;6086;43.546;26.474;2022-08-16T01:45:09;8.97;;;7.20;;
12050;SDS011;6086;43.546;26.474;2022-08-16T01:47:36;9.33;;;7.83;;
12050;SDS011;6086;43.546;26.474;2022-08-16T01:50:06;11.60;;;7.53;;
12050;SDS011;6086;43.546;26.474;2022-08-16T01:52:33;9.80;;;7.87;;
12050;SDS011;6086;43.546;26.474;2022-08-16T01:55:01;9.93;;;7.93;;
12050;SDS011;6086;43.546;26.474;2022-08-16T01:57:30;8.40;;;7.17;;
12050;SDS011;6086;43.546;26.474;2022-08-16T01:59:57;11.43;;;7.27;;
12050;SDS011;6086;43.546;26.474;2022-08-16T02:02:25;10.63;;;7.20;;
12050;SDS011;6086;43.546;26.474;2022-08-16T02:04:52;11.00;;;7.20;;
12050;SDS011;6086;43.546;26.474;2022-08-16T02:07:19;10.80;;;7.47;;
12050;SDS011;6086;43.546;26.474;2022-08-16T02:09:47;11.53;;;7.73;;
12050;SDS011;6086;43.546;26.474;2022-08-16T02:12:14;14.83;;;8.27;;
12050;SDS011;6086;43.546;26.474;2022-08-16T02:14:42;11.00;;;7.67;;
12050;SDS011;6086;43.546;26.474;2022-08-16T02:17:10;10.33;;;7.60;;
12050;SDS011;6086;43.546;26.474;2022-08-16T02:19:39;9.23;;;7.47;;
12050;SDS011;6086;43.546;26.474;2022-08-16T02:22:10;12.33;;;7.17;;
12050;SDS011;6086;43.546;26.474;2022-08-16T02:24:39;12.37;;;7.23;;
12050;SDS011;6086;43.546;26.474;2022-08-16T02:27:07;9.87;;;7.33;;
12050;SDS011;6086;43.546;26.474;2022-08-16T02:32:58;8.50;;;7.00;;
12050;SDS011;6086;43.546;26.474;2022-08-16T02:35:25;11.53;;;7.50;;
12050;SDS011;6086;43.546;26.474;2022-08-16T02:37:53;9.10;;;7.23;;
12050;SDS011;6086;43.546;26.474;2022-08-16T02:40:20;9.70;;;7.43;;
12050;SDS011;6086;43.546;26.474;2022-08-16T02:42:49;9.27;;;7.47;;
12050;SDS011;6086;43.546;26.474;2022-08-16T02:45:17;12.27;;;8.20;;
12050;SDS011;6086;43.546;26.474;2022-08-16T02:47:45;12.17;;;8.00;;
12050;SDS011;6086;43.546;26.474;2022-08-16T02:50:14;10.80;;;7.90;;
12050;SDS011;6086;43.546;26.474;2022-08-16T02:52:41;9.43;;;7.27;;
12050;SDS011;6086;43.546;26.474;2022-08-16T02:55:08;12.57;;;7.77;;
12050;SDS011;6086;43.546;26.474;2022-08-16T02:57:35;10.30;;;7.63;;
12050;SDS011;6086;43.546;26.474;2022-08-16T03:00:03;10.30;;;7.67;;
12050;SDS011;6086;43.546;26.474;2022-08-16T03:02:34;11.23;;;7.47;;
12050;SDS011;6086;43.546;26.474;2022-08-16T03:05:01;11.40;;;8.17;;
12050;SDS011;6086;43.546;26.474;2022-08-16T03:07:30;10.50;;;7.57;;
12050;SDS011;6086;43.546;26.474;2022-08-16T03:09:57;10.43;;;7.57;;
12050;SDS011;6086;43.546;26.474;2022-08-16T03:12:24;10.73;;;8.43;;
12050;SDS011;6086;43.546;26.474;2022-08-16T03:14:50;9.47;;;8.07;;
12050;SDS011;6086;43.546;26.474;2022-08-16T03:17:17;10.70;;;8.30;;
12050;SDS011;6086;43.546;26.474;2022-08-16T03:19:45;11.07;;;8.03;;
12050;SDS011;6086;43.546;26.474;2022-08-16T03:22:12;9.93;;;8.07;;
12050;SDS011;6086;43.546;26.474;2022-08-16T03:24:42;13.57;;;8.40;;
12050;SDS011;6086;43.546;26.474;2022-08-16T03:27:09;15.03;;;8.37;;
12050;SDS011;6086;43.546;26.474;2022-08-16T03:29:49;11.50;;;8.17;;
12050;SDS011;6086;43.546;26.474;2022-08-16T03:32:16;12.73;;;8.53;;
12050;SDS011;6086;43.546;26.474;2022-08-16T03:34:43;10.27;;;7.77;;
12050;SDS011;6086;43.546;26.474;2022-08-16T03:37:10;11.43;;;8.23;;
12050;SDS011;6086;43.546;26.474;2022-08-16T03:39:37;9.87;;;7.77;;
12050;SDS011;6086;43.546;26.474;2022-08-16T03:42:06;12.17;;;7.70;;
12050;SDS011;6086;43.546;26.474;2022-08-16T03:44:33;13.80;;;8.90;;
12050;SDS011;6086;43.546;26.474;2022-08-16T03:47:00;10.13;;;8.30;;
12050;SDS011;6086;43.546;26.474;2022-08-16T03:49:27;13.03;;;8.67;;
12050;SDS011;6086;43.546;26.474;2022-08-16T03:51:54;9.77;;;8.23;;
12050;SDS011;6086;43.546;26.474;2022-08-16T03:54:20;11.97;;;8.83;;
12050;SDS011;6086;43.546;26.474;2022-08-16T03:56:47;12.37;;;7.63;;
12050;SDS011;6086;43.546;26.474;2022-08-16T03:59:16;13.83;;;8.17;;
12050;SDS011;6086;43.546;26.474;2022-08-16T04:01:43;16.20;;;7.90;;
12050;SDS011;6086;43.546;26.474;2022-08-16T04:04:10;11.50;;;8.87;;
12050;SDS011;6086;43.546;26.474;2022-08-16T04:06:37;12.87;;;8.07;;
12050;SDS011;6086;43.546;26.474;2022-08-16T04:09:04;9.27;;;7.10;;
12050;SDS011;6086;43.546;26.474;2022-08-16T04:11:31;10.90;;;7.80;;
12050;SDS011;6086;43.546;26.474;2022-08-16T04:13:58;11.17;;;7.77;;
12050;SDS011;6086;43.546;26.474;2022-08-16T04:16:26;9.90;;;8.20;;
12050;SDS011;6086;43.546;26.474;2022-08-16T04:18:55;17.70;;;8.77;;
12050;SDS011;6086;43.546;26.474;2022-08-16T04:21:22;11.77;;;8.27;;
12050;SDS011;6086;43.546;26.474;2022-08-16T04:23:49;14.27;;;8.20;;
12050;SDS011;6086;43.546;26.474;2022-08-16T04:26:16;11.70;;;9.07;;
12050;SDS011;6086;43.546;26.474;2022-08-16T04:28:43;11.37;;;8.57;;
12050;SDS011;6086;43.546;26.474;2022-08-16T04:31:09;10.93;;;7.27;;
12050;SDS011;6086;43.546;26.474;2022-08-16T04:33:38;11.87;;;8.07;;
12050;SDS011;6086;43.546;26.474;2022-08-16T04:36:05;12.13;;;8.40;;
12050;SDS011;6086;43.546;26.474;2022-08-16T04:38:34;11.63;;;7.33;;
12050;SDS011;6086;43.546;26.474;2022-08-16T04:41:00;15.67;;;9.80;;
12050;SDS011;6086;43.546;26.474;2022-08-16T04:43:28;12.37;;;8.47;;
12050;SDS011;6086;43.546;26.474;2022-08-16T04:45:55;10.87;;;7.77;;
12050;SDS011;6086;43.546;26.474;2022-08-16T04:48:21;12.93;;;7.47;;
12050;SDS011;6086;43.546;26.474;2022-08-16T04:50:50;10.17;;;8.17;;
12050;SDS011;6086;43.546;26.474;2022-08-16T04:53:17;10.20;;;7.60;;
12050;SDS011;6086;43.546;26.474;2022-08-16T04:55:44;10.67;;;7.47;;
12050;SDS011;6086;43.546;26.474;2022-08-16T04:58:11;14.03;;;8.27;;
12050;SDS011;6086;43.546;26.474;2022-08-16T05:00:38;10.17;;;7.87;;
12050;SDS011;6086;43.546;26.474;2022-08-16T05:03:05;10.50;;;8.00;;
12050;SDS011;6086;43.546;26.474;2022-08-16T05:05:35;10.50;;;7.70;;
12050;SDS011;6086;43.546;26.474;2022-08-16T05:08:08;12.67;;;7.60;;
12050;SDS011;6086;43.546;26.474;2022-08-16T05:10:35;15.97;;;7.70;;
12050;SDS011;6086;43.546;26.474;2022-08-16T05:13:02;10.77;;;7.27;;
12050;SDS011;6086;43.546;26.474;2022-08-16T05:15:31;12.93;;;7.43;;
12050;SDS011;6086;43.546;26.474;2022-08-16T05:17:59;9.43;;;7.37;;
12050;SDS011;6086;43.546;26.474;2022-08-16T05:20:26;9.17;;;7.60;;
12050;SDS011;6086;43.546;26.474;2022-08-16T05:22:53;13.17;;;8.27;;
12050;SDS011;6086;43.546;26.474;2022-08-16T05:25:21;11.33;;;7.80;;
12050;SDS011;6086;43.546;26.474;2022-08-16T05:27:48;10.97;;;7.20;;
12050;SDS011;6086;43.546;26.474;2022-08-16T05:30:15;8.63;;;6.97;;
12050;SDS011;6086;43.546;26.474;2022-08-16T05:32:42;14.37;;;8.33;;
12050;SDS011;6086;43.546;26.474;2022-08-16T05:35:10;10.83;;;7.43;;
12050;SDS011;6086;43.546;26.474;2022-08-16T05:37:38;8.77;;;7.87;;
12050;SDS011;6086;43.546;26.474;2022-08-16T05:40:06;10.17;;;7.20;;
12050;SDS011;6086;43.546;26.474;2022-08-16T05:42:36;10.37;;;7.97;;
12050;SDS011;6086;43.546;26.474;2022-08-16T05:45:04;10.07;;;7.73;;
12050;SDS011;6086;43.546;26.474;2022-08-16T05:47:32;11.67;;;7.87;;
12050;SDS011;6086;43.546;26.474;2022-08-16T05:49:59;10.40;;;7.67;;
12050;SDS011;6086;43.546;26.474;2022-08-16T05:52:26;9.20;;;7.90;;
12050;SDS011;6086;43.546;26.474;2022-08-16T05:54:53;8.83;;;7.43;;
12050;SDS011;6086;43.546;26.474;2022-08-16T05:57:20;11.23;;;7.53;;
12050;SDS011;6086;43.546;26.474;2022-08-16T05:59:48;8.33;;;7.07;;
12050;SDS011;6086;43.546;26.474;2022-08-16T06:02:16;10.30;;;6.77;;
12050;SDS011;6086;43.546;26.474;2022-08-16T06:04:43;10.43;;;8.10;;
12050;SDS011;6086;43.546;26.474;2022-08-16T06:07:10;8.80;;;7.40;;
12050;SDS011;6086;43.546;26.474;2022-08-16T06:09:38;10.63;;;7.37;;
12050;SDS011;6086;43.546;26.474;2022-08-16T06:12:05;7.77;;;6.97;;
12050;SDS011;6086;43.546;26.474;2022-08-16T06:14:33;9.27;;;7.60;;
12050;SDS011;6086;43.546;26.474;2022-08-16T06:17:02;7.73;;;6.93;;
12050;SDS011;6086;43.546;26.474;2022-08-16T06:19:29;7.70;;;6.67;;
12050;SDS011;6086;43.546;26.474;2022-08-16T06:21:56;8.03;;;6.87;;
12050;SDS011;6086;43.546;26.474;2022-08-16T06:24:22;7.80;;;7.00;;
12050;SDS011;6086;43.546;26.474;2022-08-16T06:26:50;7.23;;;6.50;;
12050;SDS011;6086;43.546;26.474;2022-08-16T06:29:16;6.87;;;6.17;;
12050;SDS011;6086;43.546;26.474;2022-08-16T06:31:43;10.87;;;7.10;;
12050;SDS011;6086;43.546;26.474;2022-08-16T06:34:12;8.10;;;6.20;;
12050;SDS011;6086;43.546;26.474;2022-08-16T06:36:39;8.07;;;6.20;;
12050;SDS011;6086;43.546;26.474;2022-08-16T06:39:06;6.43;;;5.83;;
12050;SDS011;6086;43.546;26.474;2022-08-16T06:41:33;8.07;;;5.63;;
12050;SDS011;6086;43.546;26.474;2022-08-16T06:44:00;6.30;;;5.70;;
12050;SDS011;6086;43.546;26.474;2022-08-16T06:46:28;6.17;;;5.60;;
12050;SDS011;6086;43.546;26.474;2022-08-16T06:48:58;5.73;;;5.13;;
12050;SDS011;6086;43.546;26.474;2022-08-16T06:51:27;6.67;;;5.20;;
12050;SDS011;6086;43.546;26.474;2022-08-16T06:53:54;6.00;;;5.40;;
12050;SDS011;6086;43.546;26.474;2022-08-16T06:56:21;6.00;;;5.40;;
12050;SDS011;6086;43.546;26.474;2022-08-16T06:58:48;5.80;;;5.23;;
12050;SDS011;6086;43.546;26.474;2022-08-16T07:01:16;8.47;;;5.57;;
12050;SDS011;6086;43.546;26.474;2022-08-16T07:03:43;7.60;;;6.00;;
12050;SDS011;6086;43.546;26.474;2022-08-16T07:06:10;8.53;;;5.37;;
12050;SDS011;6086;43.546;26.474;2022-08-16T07:08:39;7.47;;;5.97;;
12050;SDS011;6086;43.546;26.474;2022-08-16T07:11:06;6.57;;;5.97;;
12050;SDS011;6086;43.546;26.474;2022-08-16T07:13:34;6.60;;;5.90;;
12050;SDS011;6086;43.546;26.474;2022-08-16T07:16:01;6.13;;;5.10;;
12050;SDS011;6086;43.546;26.474;2022-08-16T07:18:30;6.77;;;5.67;;
12050;SDS011;6086;43.546;26.474;2022-08-16T07:20:57;8.20;;;5.43;;
12050;SDS011;6086;43.546;26.474;2022-08-16T07:23:24;6.07;;;4.60;;
12050;SDS011;6086;43.546;26.474;2022-08-16T07:25:53;5.40;;;4.90;;
12050;SDS011;6086;43.546;26.474;2022-08-16T07:28:20;6.40;;;5.13;;
12050;SDS011;6086;43.546;26.474;2022-08-16T07:30:47;5.07;;;4.57;;
12050;SDS011;6086;43.546;26.474;2022-08-16T07:33:14;5.50;;;4.93;;
12050;SDS011;6086;43.546;26.474;2022-08-16T07:35:42;6.63;;;5.03;;
12050;SDS011;6086;43.546;26.474;2022-08-16T07:38:09;7.07;;;4.90;;
12050;SDS011;6086;43.546;26.474;2022-08-16T07:40:36;6.50;;;5.27;;
12050;SDS011;6086;43.546;26.474;2022-08-16T07:43:05;5.77;;;5.27;;
12050;SDS011;6086;43.546;26.474;2022-08-16T07:45:32;7.37;;;5.63;;
12050;SDS011;6086;43.546;26.474;2022-08-16T07:47:59;6.10;;;4.83;;
12050;SDS011;6086;43.546;26.474;2022-08-16T07:50:26;8.13;;;5.33;;
12050;SDS011;6086;43.546;26.474;2022-08-16T07:52:53;5.30;;;4.80;;
12050;SDS011;6086;43.546;26.474;2022-08-16T07:55:20;5.17;;;4.67;;
12050;SDS011;6086;43.546;26.474;2022-08-16T07:57:47;6.50;;;5.13;;
12050;SDS011;6086;43.546;26.474;2022-08-16T08:00:15;5.20;;;4.70;;
12050;SDS011;6086;43.546;26.474;2022-08-16T08:02:44;6.93;;;5.20;;
12050;SDS011;6086;43.546;26.474;2022-08-16T08:05:12;6.80;;;5.03;;
12050;SDS011;6086;43.546;26.474;2022-08-16T08:07:39;5.37;;;4.87;;
12050;SDS011;6086;43.546;26.474;2022-08-16T08:10:06;5.50;;;4.70;;
12050;SDS011;6086;43.546;26.474;2022-08-16T08:12:34;4.77;;;4.37;;
12050;SDS011;6086;43.546;26.474;2022-08-16T08:15:02;7.03;;;5.20;;
12050;SDS011;6086;43.546;26.474;2022-08-16T08:17:31;5.00;;;4.50;;
12050;SDS011;6086;43.546;26.474;2022-08-16T08:19:58;6.50;;;4.87;;
12050;SDS011;6086;43.546;26.474;2022-08-16T08:22:25;5.73;;;4.73;;
12050;SDS011;6086;43.546;26.474;2022-08-16T08:24:52;5.83;;;5.33;;
12050;SDS011;6086;43.546;26.474;2022-08-16T08:27:19;5.37;;;4.87;;
12050;SDS011;6086;43.546;26.474;2022-08-16T08:29:46;5.17;;;4.67;;
12050;SDS011;6086;43.546;26.474;2022-08-16T08:32:13;5.10;;;4.60;;
12050;SDS011;6086;43.546;26.474;2022-08-16T08:34:41;8.10;;;4.87;;
12050;SDS011;6086;43.546;26.474;2022-08-16T08:37:08;5.23;;;4.53;;
12050;SDS011;6086;43.546;26.474;2022-08-16T08:39:35;4.87;;;4.40;;
12050;SDS011;6086;43.546;26.474;2022-08-16T08:42:04;6.00;;;5.40;;
12050;SDS011;6086;43.546;26.474;2022-08-16T08:44:31;6.13;;;5.43;;
12050;SDS011;6086;43.546;26.474;2022-08-16T08:47:00;6.00;;;5.47;;
12050;SDS011;6086;43.546;26.474;2022-08-16T08:49:31;7.03;;;4.93;;
12050;SDS011;6086;43.546;26.474;2022-08-16T08:52:00;6.10;;;5.40;;
12050;SDS011;6086;43.546;26.474;2022-08-16T08:54:27;4.80;;;4.27;;
12050;SDS011;6086;43.546;26.474;2022-08-16T08:56:53;5.53;;;5.03;;
12050;SDS011;6086;43.546;26.474;2022-08-16T08:59:20;5.87;;;5.33;;
12050;SDS011;6086;43.546;26.474;2022-08-16T09:01:47;5.50;;;5.00;;
12050;SDS011;6086;43.546;26.474;2022-08-16T09:04:15;7.37;;;5.07;;
12050;SDS011;6086;43.546;26.474;2022-08-16T09:06:43;6.00;;;4.80;;
12050;SDS011;6086;43.546;26.474;2022-08-16T09:09:12;5.87;;;4.87;;
12050;SDS011;6086;43.546;26.474;2022-08-16T09:11:39;5.40;;;4.90;;
12050;SDS011;6086;43.546;26.474;2022-08-16T09:14:08;5.83;;;5.33;;
12050;SDS011;6086;43.546;26.474;2022-08-16T09:16:35;6.27;;;5.43;;
12050;SDS011;6086;43.546;26.474;2022-08-16T09:19:02;6.30;;;5.20;;
12050;SDS011;6086;43.546;26.474;2022-08-16T09:21:29;5.93;;;5.33;;
12050;SDS011;6086;43.546;26.474;2022-08-16T09:23:56;5.73;;;4.67;;
12050;SDS011;6086;43.546;26.474;2022-08-16T09:26:25;6.50;;;5.20;;
12050;SDS011;6086;43.546;26.474;2022-08-16T09:28:52;7.50;;;4.97;;
12050;SDS011;6086;43.546;26.474;2022-08-16T09:31:19;5.33;;;4.83;;
12050;SDS011;6086;43.546;26.474;2022-08-16T09:33:46;5.23;;;4.73;;
12050;SDS011;6086;43.546;26.474;2022-08-16T09:36:12;5.20;;;4.80;;
12050;SDS011;6086;43.546;26.474;2022-08-16T09:38:41;5.43;;;4.47;;
12050;SDS011;6086;43.546;26.474;2022-08-16T09:41:08;5.60;;;5.10;;
12050;SDS011;6086;43.546;26.474;2022-08-16T09:43:38;5.97;;;5.47;;
12050;SDS011;6086;43.546;26.474;2022-08-16T09:46:06;6.13;;;5.17;;
12050;SDS011;6086;43.546;26.474;2022-08-16T09:48:34;6.20;;;5.60;;
12050;SDS011;6086;43.546;26.474;2022-08-16T09:51:06;5.50;;;4.80;;
12050;SDS011;6086;43.546;26.474;2022-08-16T09:53:34;7.63;;;5.30;;
12050;SDS011;6086;43.546;26.474;2022-08-16T09:56:03;6.10;;;5.50;;
12050;SDS011;6086;43.546;26.474;2022-08-16T09:58:33;5.87;;;5.37;;
12050;SDS011;6086;43.546;26.474;2022-08-16T10:01:02;7.13;;;5.83;;
12050;SDS011;6086;43.546;26.474;2022-08-16T10:03:29;8.03;;;5.70;;
12050;SDS011;6086;43.546;26.474;2022-08-16T10:05:56;6.17;;;5.57;;
12050;SDS011;6086;43.546;26.474;2022-08-16T10:08:23;6.20;;;5.60;;
12050;SDS011;6086;43.546;26.474;2022-08-16T10:10:50;6.97;;;5.93;;
12050;SDS011;6086;43.546;26.474;2022-08-16T10:13:34;5.70;;;5.20;;
12050;SDS011;6086;43.546;26.474;2022-08-16T10:16:03;6.53;;;5.70;;
12050;SDS011;6086;43.546;26.474;2022-08-16T10:18:30;6.77;;;6.10;;
12050;SDS011;6086;43.546;26.474;2022-08-16T10:20:58;6.43;;;5.83;;
12050;SDS011;6086;43.546;26.474;2022-08-16T10:23:25;8.70;;;5.67;;
12050;SDS011;6086;43.546;26.474;2022-08-16T10:25:53;5.73;;;5.23;;
12050;SDS011;6086;43.546;26.474;2022-08-16T10:28:20;7.30;;;5.47;;
12050;SDS011;6086;43.546;26.474;2022-08-16T10:30:47;5.60;;;5.10;;
12050;SDS011;6086;43.546;26.474;2022-08-16T10:33:16;5.90;;;5.30;;
12050;SDS011;6086;43.546;26.474;2022-08-16T10:35:43;5.93;;;5.43;;
12050;SDS011;6086;43.546;26.474;2022-08-16T10:38:11;6.07;;;5.53;;
12050;SDS011;6086;43.546;26.474;2022-08-16T10:40:41;5.47;;;4.97;;
12050;SDS011;6086;43.546;26.474;2022-08-16T10:43:08;10.37;;;6.30;;
12050;SDS011;6086;43.546;26.474;2022-08-16T10:45:35;6.27;;;5.43;;
12050;SDS011;6086;43.546;26.474;2022-08-16T10:48:02;7.67;;;6.00;;
12050;SDS011;6086;43.546;26.474;2022-08-16T10:50:33;6.40;;;5.80;;
12050;SDS011;6086;43.546;26.474;2022-08-16T10:53:00;6.27;;;5.57;;
12050;SDS011;6086;43.546;26.474;2022-08-16T10:55:30;5.90;;;5.40;;
12050;SDS011;6086;43.546;26.474;2022-08-16T10:58:01;6.53;;;5.93;;
12050;SDS011;6086;43.546;26.474;2022-08-16T11:00:28;6.30;;;5.73;;
12050;SDS011;6086;43.546;26.474;2022-08-16T11:02:57;8.87;;;6.53;;
12050;SDS011;6086;43.546;26.474;2022-08-16T11:05:24;5.93;;;5.33;;
12050;SDS011;6086;43.546;26.474;2022-08-16T11:07:53;8.17;;;6.00;;
12050;SDS011;6086;43.546;26.474;2022-08-16T11:10:22;6.13;;;5.13;;
12050;SDS011;6086;43.546;26.474;2022-08-16T11:12:51;6.17;;;5.57;;
12050;SDS011;6086;43.546;26.474;2022-08-16T11:15:18;7.23;;;5.70;;
12050;SDS011;6086;43.546;26.474;2022-08-16T11:17:46;6.70;;;5.40;;
12050;SDS011;6086;43.546;26.474;2022-08-16T11:20:14;6.17;;;5.57;;
12050;SDS011;6086;43.546;26.474;2022-08-16T11:22:42;7.53;;;6.67;;
12050;SDS011;6086;43.546;26.474;2022-08-16T11:25:10;7.53;;;5.50;;
12050;SDS011;6086;43.546;26.474;2022-08-16T11:27:38;6.60;;;5.90;;
12050;SDS011;6086;43.546;26.474;2022-08-16T11:30:07;6.63;;;5.93;;
12050;SDS011;6086;43.546;26.474;2022-08-16T11:32:36;6.90;;;6.23;;
12050;SDS011;6086;43.546;26.474;2022-08-16T11:35:06;7.27;;;6.23;;
12050;SDS011;6086;43.546;26.474;2022-08-16T11:37:35;6.30;;;5.80;;
12050;SDS011;6086;43.546;26.474;2022-08-16T11:51:06;6.43;;;5.93;;
12050;SDS011;6086;43.546;26.474;2022-08-16T11:53:33;6.50;;;5.90;;
12050;SDS011;6086;43.546;26.474;2022-08-16T11:56:00;6.53;;;5.93;;
12050;SDS011;6086;43.546;26.474;2022-08-16T11:58:27;6.40;;;5.80;;
12050;SDS011;6086;43.546;26.474;2022-08-16T12:00:56;5.87;;;5.20;;
12050;SDS011;6086;43.546;26.474;2022-08-16T12:03:24;5.63;;;5.10;;
12050;SDS011;6086;43.546;26.474;2022-08-16T12:05:53;5.57;;;5.07;;
12050;SDS011;6086;43.546;26.474;2022-08-16T12:08:21;6.20;;;5.60;;
12050;SDS011;6086;43.546;26.474;2022-08-16T12:10:49;6.40;;;5.77;;
12050;SDS011;6086;43.546;26.474;2022-08-16T12:13:17;6.10;;;5.60;;
12050;SDS011;6086;43.546;26.474;2022-08-16T12:15:43;6.40;;;5.77;;
12050;SDS011;6086;43.546;26.474;2022-08-16T12:18:10;7.00;;;6.30;;
12050;SDS011;6086;43.546;26.474;2022-08-16T12:20:39;6.27;;;5.50;;
12050;SDS011;6086;43.546;26.474;2022-08-16T12:23:07;6.00;;;5.40;;
12050;SDS011;6086;43.546;26.474;2022-08-16T12:25:36;6.50;;;5.90;;
12050;SDS011;6086;43.546;26.474;2022-08-16T12:28:04;5.87;;;5.37;;
12050;SDS011;6086;43.546;26.474;2022-08-16T12:30:35;6.00;;;5.40;;
12050;SDS011;6086;43.546;26.474;2022-08-16T12:33:04;6.20;;;5.67;;
12050;SDS011;6086;43.546;26.474;2022-08-16T12:35:33;7.23;;;6.53;;
12050;SDS011;6086;43.546;26.474;2022-08-16T12:38:02;6.50;;;5.90;;
12050;SDS011;6086;43.546;26.474;2022-08-16T12:40:31;6.63;;;5.87;;
12050;SDS011;6086;43.546;26.474;2022-08-16T12:43:01;6.13;;;5.60;;
12050;SDS011;6086;43.546;26.474;2022-08-16T12:45:34;6.43;;;5.83;;
12050;SDS011;6086;43.546;26.474;2022-08-16T12:48:04;6.37;;;5.77;;
12050;SDS011;6086;43.546;26.474;2022-08-16T12:50:49;6.70;;;6.10;;
12050;SDS011;6086;43.546;26.474;2022-08-16T12:53:16;7.00;;;6.30;;
12050;SDS011;6086;43.546;26.474;2022-08-16T12:55:44;8.93;;;5.90;;
12050;SDS011;6086;43.546;26.474;2022-08-16T12:58:13;7.00;;;5.70;;
12050;SDS011;6086;43.546;26.474;2022-08-16T13:00:40;6.50;;;5.90;;
12050;SDS011;6086;43.546;26.474;2022-08-16T13:03:08;7.27;;;6.57;;
12050;SDS011;6086;43.546;26.474;2022-08-16T13:05:35;6.70;;;6.00;;
12050;SDS011;6086;43.546;26.474;2022-08-16T13:08:06;7.80;;;6.57;;
12050;SDS011;6086;43.546;26.474;2022-08-16T13:10:33;6.90;;;6.20;;
12050;SDS011;6086;43.546;26.474;2022-08-16T13:13:01;7.13;;;6.00;;
12050;SDS011;6086;43.546;26.474;2022-08-16T13:15:31;6.70;;;6.00;;
12050;SDS011;6086;43.546;26.474;2022-08-16T13:17:58;6.87;;;6.20;;
12050;SDS011;6086;43.546;26.474;2022-08-16T13:20:25;5.90;;;5.40;;
12050;SDS011;6086;43.546;26.474;2022-08-16T13:22:57;8.23;;;6.30;;
12050;SDS011;6086;43.546;26.474;2022-08-16T13:25:27;7.70;;;6.10;;
12050;SDS011;6086;43.546;26.474;2022-08-16T13:27:56;6.80;;;6.20;;
12050;SDS011;6086;43.546;26.474;2022-08-16T13:30:23;6.13;;;5.20;;
12050;SDS011;6086;43.546;26.474;2022-08-16T13:32:53;7.73;;;7.03;;
12050;SDS011;6086;43.546;26.474;2022-08-16T13:35:21;6.47;;;5.87;;
12050;SDS011;6086;43.546;26.474;2022-08-16T13:37:49;6.30;;;5.70;;
12050;SDS011;6086;43.546;26.474;2022-08-16T13:40:16;15.07;;;6.90;;
12050;SDS011;6086;43.546;26.474;2022-08-16T13:42:43;8.07;;;6.37;;
12050;SDS011;6086;43.546;26.474;2022-08-16T13:45:12;10.00;;;6.33;;
12050;SDS011;6086;43.546;26.474;2022-08-16T13:47:40;7.87;;;5.80;;
12050;SDS011;6086;43.546;26.474;2022-08-16T13:50:10;6.90;;;5.73;;
12050;SDS011;6086;43.546;26.474;2022-08-16T13:52:37;6.00;;;5.47;;
12050;SDS011;6086;43.546;26.474;2022-08-16T13:55:05;7.03;;;6.00;;
12050;SDS011;6086;43.546;26.474;2022-08-16T13:57:32;6.13;;;5.57;;
12050;SDS011;6086;43.546;26.474;2022-08-16T13:59:59;8.07;;;7.27;;
12050;SDS011;6086;43.546;26.474;2022-08-16T14:02:27;8.53;;;5.43;;
12050;SDS011;6086;43.546;26.474;2022-08-16T14:04:53;5.60;;;5.10;;
12050;SDS011;6086;43.546;26.474;2022-08-16T14:07:22;6.63;;;5.50;;
12050;SDS011;6086;43.546;26.474;2022-08-16T14:09:49;5.80;;;5.30;;
12050;SDS011;6086;43.546;26.474;2022-08-16T14:12:17;5.73;;;5.23;;
12050;SDS011;6086;43.546;26.474;2022-08-16T14:14:46;5.90;;;5.07;;
12050;SDS011;6086;43.546;26.474;2022-08-16T14:17:15;5.80;;;5.17;;
12050;SDS011;6086;43.546;26.474;2022-08-16T14:19:42;5.67;;;5.17;;
12050;SDS011;6086;43.546;26.474;2022-08-16T14:22:13;5.70;;;5.20;;
12050;SDS011;6086;43.546;26.474;2022-08-16T14:24:43;5.37;;;4.73;;
12050;SDS011;6086;43.546;26.474;2022-08-16T14:27:12;6.17;;;5.57;;
12050;SDS011;6086;43.546;26.474;2022-08-16T14:29:40;6.00;;;5.43;;
12050;SDS011;6086;43.546;26.474;2022-08-16T14:32:07;7.30;;;5.43;;
12050;SDS011;6086;43.546;26.474;2022-08-16T14:34:35;6.17;;;5.60;;
12050;SDS011;6086;43.546;26.474;2022-08-16T14:37:02;5.90;;;5.30;;
12050;SDS011;6086;43.546;26.474;2022-08-16T14:39:30;7.83;;;5.53;;
12050;SDS011;6086;43.546;26.474;2022-08-16T14:42:03;5.23;;;4.57;;
12050;SDS011;6086;43.546;26.474;2022-08-16T14:44:31;5.27;;;4.80;;
12050;SDS011;6086;43.546;26.474;2022-08-16T14:46:58;6.13;;;5.03;;
12050;SDS011;6086;43.546;26.474;2022-08-16T14:49:26;6.03;;;5.43;;
12050;SDS011;6086;43.546;26.474;2022-08-16T14:51:53;8.93;;;5.40;;
12050;SDS011;6086;43.546;26.474;2022-08-16T14:54:24;5.20;;;4.80;;
12050;SDS011;6086;43.546;26.474;2022-08-16T14:56:51;6.00;;;5.50;;
12050;SDS011;6086;43.546;26.474;2022-08-16T14:59:19;5.23;;;4.60;;
12050;SDS011;6086;43.546;26.474;2022-08-16T15:01:46;6.60;;;5.50;;